createdAt,value
2023-12-12T00:01:22.296Z,7.60
2023-12-12T00:05:24.131Z,7.60
2023-12-12T00:09:25.977Z,7.70
2023-12-12T00:13:28.076Z,7.80
2023-12-12T00:17:30.187Z,7.90
2023-12-12T00:21:32.133Z,8.00
2023-12-12T00:25:34.004Z,8.10
2023-12-12T00:29:39.857Z,8.10
2023-12-12T00:33:41.671Z,8.20
2023-12-12T00:37:43.473Z,8.30
2023-12-12T00:41:45.395Z,8.30
2023-12-12T00:45:47.309Z,8.20
2023-12-12T00:49:49.269Z,8.00
2023-12-12T00:53:51.279Z,7.90
2023-12-12T00:57:53.182Z,7.80
2023-12-12T01:01:55.077Z,7.70
2023-12-12T01:05:56.872Z,7.60
2023-12-12T01:09:58.716Z,7.40
2023-12-12T01:14:01.066Z,7.40
2023-12-12T01:18:02.881Z,7.30
2023-12-12T01:22:04.804Z,7.20
2023-12-12T01:26:06.586Z,7.10
2023-12-12T01:30:08.710Z,7.00
2023-12-12T01:34:10.940Z,7.00
2023-12-12T01:38:12.769Z,7.00
2023-12-12T01:42:14.521Z,6.90
2023-12-12T01:46:16.520Z,6.90
2023-12-12T01:50:18.366Z,6.90
2023-12-12T01:54:20.187Z,6.80
2023-12-12T01:58:22.119Z,6.90
2023-12-12T02:02:23.880Z,6.80
2023-12-12T02:06:25.756Z,6.90
2023-12-12T02:10:27.731Z,7.00
2023-12-12T02:14:29.626Z,7.00
2023-12-12T02:18:31.461Z,6.90
2023-12-12T02:22:33.323Z,6.90
2023-12-12T02:26:35.342Z,6.90
2023-12-12T02:30:37.057Z,6.90
2023-12-12T02:34:38.877Z,6.90
2023-12-12T02:38:40.606Z,7.00
2023-12-12T02:42:45.672Z,7.10
2023-12-12T02:46:47.369Z,7.30
2023-12-12T02:50:49.072Z,7.50
2023-12-12T02:54:50.957Z,7.60
2023-12-12T02:58:52.702Z,7.70
2023-12-12T03:03:00.630Z,7.60
2023-12-12T03:07:08.687Z,7.70
2023-12-12T03:11:16.621Z,7.80
2023-12-12T03:15:24.626Z,7.90
2023-12-12T03:19:32.805Z,8.00
2023-12-12T03:23:40.622Z,8.10
2023-12-12T03:27:42.511Z,8.10
2023-12-12T03:31:44.341Z,8.20
2023-12-12T03:35:46.069Z,8.20
2023-12-12T03:39:47.786Z,8.30
2023-12-12T03:43:49.473Z,8.30
2023-12-12T03:47:51.253Z,8.30
2023-12-12T03:51:53.026Z,8.30
2023-12-12T03:55:54.809Z,8.40
2023-12-12T03:59:56.570Z,8.40
2023-12-12T04:03:58.397Z,8.30
2023-12-12T04:08:00.242Z,8.30
2023-12-12T04:12:02.011Z,8.20
2023-12-12T04:16:04.812Z,8.20
2023-12-12T04:20:07.553Z,8.20
2023-12-12T04:24:09.368Z,8.20
2023-12-12T04:28:11.076Z,8.20
2023-12-12T04:32:12.893Z,8.20
2023-12-12T04:36:15.699Z,8.30
2023-12-12T04:40:17.655Z,8.30
2023-12-12T04:44:19.382Z,8.30
2023-12-12T04:48:21.257Z,8.30
2023-12-12T04:52:23.162Z,8.30
2023-12-12T04:56:24.888Z,8.20
2023-12-12T05:00:26.684Z,8.20
2023-12-12T05:04:28.746Z,8.20
2023-12-12T05:08:30.987Z,8.30
2023-12-12T05:12:35.672Z,8.30
2023-12-12T05:16:37.881Z,8.40
2023-12-12T05:20:39.728Z,8.50
2023-12-12T05:24:41.450Z,8.50
2023-12-12T05:28:43.369Z,8.50
2023-12-12T05:32:45.315Z,8.40
2023-12-12T05:36:47.212Z,8.40
2023-12-12T05:40:49.754Z,8.20
2023-12-12T05:44:51.498Z,8.20
2023-12-12T05:48:53.315Z,8.20
2023-12-12T05:52:55.182Z,8.10
2023-12-12T05:56:57.047Z,8.10
2023-12-12T06:00:58.925Z,8.00
2023-12-12T06:05:00.840Z,7.90
2023-12-12T06:09:03.012Z,7.90
2023-12-12T06:13:05.328Z,7.90
2023-12-12T06:17:08.681Z,8.00
2023-12-12T06:21:10.538Z,8.10
2023-12-12T06:25:12.412Z,8.10
2023-12-12T06:29:14.301Z,8.00
2023-12-12T06:33:16.491Z,8.10
2023-12-12T06:37:18.312Z,8.10
2023-12-12T06:41:20.120Z,8.10
2023-12-12T06:45:22.115Z,8.10
2023-12-12T06:49:25.048Z,8.10
2023-12-12T06:53:26.846Z,8.10
2023-12-12T06:57:28.896Z,8.20
2023-12-12T07:01:30.858Z,8.10
2023-12-12T07:05:32.765Z,8.20
2023-12-12T07:09:35.257Z,8.20
2023-12-12T07:13:37.128Z,8.20
2023-12-12T07:17:39.016Z,8.30
2023-12-12T07:21:42.524Z,8.30
2023-12-12T07:25:44.401Z,8.30
2023-12-12T07:29:46.212Z,8.40
2023-12-12T07:33:48.079Z,8.40
2023-12-12T07:37:50.007Z,8.40
2023-12-12T07:41:51.839Z,8.50
2023-12-12T07:45:53.754Z,8.50
2023-12-12T07:49:56.749Z,8.60
2023-12-12T07:53:59.270Z,8.60
2023-12-12T07:58:01.194Z,8.70
2023-12-12T08:02:03.132Z,8.70
2023-12-12T08:06:05.417Z,8.80
2023-12-12T08:10:08.514Z,8.80
2023-12-12T08:14:10.446Z,8.90
2023-12-12T08:18:12.732Z,8.90
2023-12-12T08:22:14.607Z,9.00
2023-12-12T08:26:16.512Z,9.10
2023-12-12T08:30:18.466Z,9.20
2023-12-12T08:34:20.506Z,9.40
2023-12-12T08:38:22.419Z,9.60
2023-12-12T08:42:24.195Z,9.60
2023-12-12T08:46:28.244Z,9.50
2023-12-12T08:50:30.132Z,9.50
2023-12-12T08:54:31.860Z,9.60
2023-12-12T08:58:33.626Z,9.70
2023-12-12T09:02:35.540Z,9.70
2023-12-12T09:06:37.252Z,9.60
2023-12-12T09:10:39.118Z,9.50
2023-12-12T09:14:40.889Z,9.50
2023-12-12T09:18:42.663Z,9.50
2023-12-12T09:22:44.458Z,9.60
2023-12-12T09:26:46.516Z,9.60
2023-12-12T09:30:48.410Z,9.70
2023-12-12T09:34:50.157Z,9.80
2023-12-12T09:38:51.857Z,9.70
2023-12-12T09:42:53.643Z,9.90
2023-12-12T09:46:55.472Z,9.90
2023-12-12T09:50:57.965Z,10.00
2023-12-12T09:55:00.482Z,9.80
2023-12-12T09:59:02.355Z,9.80
2023-12-12T10:03:06.683Z,9.90
2023-12-12T10:07:09.069Z,10.10
2023-12-12T10:11:11.459Z,10.20
2023-12-12T10:15:34.497Z,10.30
2023-12-12T10:19:36.455Z,10.40
2023-12-12T10:23:45.151Z,10.60
2023-12-12T10:27:46.938Z,10.80
2023-12-12T10:31:48.698Z,11.00
2023-12-12T10:35:50.601Z,11.00
2023-12-12T10:39:52.297Z,11.00
2023-12-12T10:43:54.072Z,10.90
2023-12-12T10:47:56.605Z,11.20
2023-12-12T10:52:02.880Z,11.50
2023-12-12T10:56:06.069Z,11.50
2023-12-12T11:00:16.911Z,11.20
2023-12-12T11:04:21.790Z,11.10
2023-12-12T11:08:23.487Z,10.90
2023-12-12T11:12:25.590Z,10.80
2023-12-12T11:16:28.306Z,10.70
2023-12-12T11:20:31.858Z,10.70
2023-12-12T11:25:04.895Z,10.70
2023-12-12T11:29:07.451Z,10.70
2023-12-12T11:33:12.672Z,10.80
2023-12-12T11:37:14.577Z,10.80
2023-12-12T11:41:16.598Z,10.90
2023-12-12T11:45:31.836Z,11.00
2023-12-12T11:49:33.816Z,11.20
2023-12-12T11:53:39.183Z,11.40
2023-12-12T11:57:40.905Z,11.60
2023-12-12T12:01:42.754Z,11.70
2023-12-12T12:05:44.742Z,11.60
2023-12-12T12:09:48.352Z,11.70
2023-12-12T12:13:50.126Z,11.80
2023-12-12T12:17:52.387Z,11.60
2023-12-12T12:21:54.279Z,11.50
2023-12-12T12:26:02.262Z,11.30
2023-12-12T12:30:07.365Z,11.20
2023-12-12T12:34:22.800Z,11.10
2023-12-12T12:38:26.573Z,11.00
2023-12-12T12:42:39.030Z,11.00
2023-12-12T12:46:53.170Z,11.00
2023-12-12T12:50:56.435Z,10.90
2023-12-12T12:54:58.221Z,11.00
2023-12-12T12:59:00.029Z,11.10
2023-12-12T13:03:02.913Z,11.20
2023-12-12T13:07:06.735Z,11.30
2023-12-12T13:11:08.506Z,11.30
2023-12-12T13:15:11.269Z,11.20
2023-12-12T13:19:13.699Z,11.30
2023-12-12T13:23:15.533Z,11.30
2023-12-12T13:27:17.255Z,11.20
2023-12-12T13:31:25.491Z,11.20
2023-12-12T13:35:35.236Z,11.30
2023-12-12T13:39:39.341Z,11.30
2023-12-12T13:43:41.593Z,11.30
2023-12-12T13:47:43.378Z,11.30
2023-12-12T13:51:47.921Z,11.10
2023-12-12T13:55:50.217Z,11.00
2023-12-12T13:59:52.409Z,11.00
2023-12-12T14:03:54.316Z,10.90
2023-12-12T14:07:56.145Z,10.70
2023-12-12T14:12:02.623Z,10.40
2023-12-12T14:16:04.807Z,10.20
2023-12-12T14:20:08.686Z,10.10
2023-12-12T14:24:10.602Z,10.10
2023-12-12T14:28:12.800Z,10.10
2023-12-12T14:32:15.465Z,10.20
2023-12-12T14:36:17.311Z,10.20
2023-12-12T14:40:20.116Z,10.10
2023-12-12T14:44:22.075Z,10.10
2023-12-12T14:48:23.956Z,10.00
2023-12-12T14:52:25.737Z,9.90
2023-12-12T14:56:27.525Z,9.80
2023-12-12T15:00:29.356Z,9.60
2023-12-12T15:04:31.290Z,9.40
2023-12-12T15:08:33.368Z,9.30
2023-12-12T15:12:35.600Z,9.30
2023-12-12T15:16:39.853Z,9.30
2023-12-12T15:20:41.707Z,9.30
2023-12-12T15:24:43.726Z,9.30
2023-12-12T15:28:45.902Z,9.30
2023-12-12T15:32:49.760Z,9.30
2023-12-12T15:36:51.645Z,9.30
2023-12-12T15:40:53.413Z,9.20
2023-12-12T15:44:55.562Z,9.10
2023-12-12T15:48:57.374Z,9.10
2023-12-12T15:52:59.450Z,9.10
2023-12-12T15:57:01.224Z,9.10
2023-12-12T16:01:03.621Z,9.10
2023-12-12T16:05:07.885Z,9.10
2023-12-12T16:09:09.793Z,9.20
2023-12-12T16:13:12.035Z,9.20
2023-12-12T16:17:14.123Z,9.30
2023-12-12T16:21:15.916Z,9.30
2023-12-12T16:25:17.746Z,9.30
2023-12-12T16:29:19.558Z,9.30
2023-12-12T16:33:21.471Z,9.30
2023-12-12T16:37:23.377Z,9.30
2023-12-12T16:41:25.189Z,9.20
2023-12-12T16:45:27.442Z,9.20
2023-12-12T16:49:30.238Z,9.20
2023-12-12T16:53:35.837Z,9.20
2023-12-12T16:57:38.618Z,9.10
2023-12-12T17:01:40.424Z,8.80
2023-12-12T17:05:42.285Z,8.50
2023-12-12T17:09:44.116Z,8.30
2023-12-12T17:13:45.950Z,8.20
2023-12-12T17:17:47.901Z,8.20
2023-12-12T17:21:52.892Z,8.10
2023-12-12T17:25:54.734Z,8.20
2023-12-12T17:29:56.483Z,8.30
2023-12-12T17:33:59.100Z,8.40
2023-12-12T17:38:01.453Z,8.40
2023-12-12T17:42:04.522Z,8.50
2023-12-12T17:46:06.851Z,8.60
2023-12-12T17:50:09.389Z,8.60
2023-12-12T17:54:11.381Z,8.60
2023-12-12T17:58:13.229Z,8.60
2023-12-12T18:02:15.137Z,8.70
2023-12-12T18:06:17.862Z,8.70
2023-12-12T18:10:19.800Z,8.80
2023-12-12T18:14:21.741Z,8.80
2023-12-12T18:18:23.609Z,8.70
2023-12-12T18:22:25.474Z,8.70
2023-12-12T18:26:30.134Z,8.70
2023-12-12T18:30:32.948Z,8.60
2023-12-12T18:34:35.131Z,8.60
2023-12-12T18:38:37.576Z,8.70
2023-12-12T18:42:39.699Z,8.60
2023-12-12T18:46:43.405Z,8.50
2023-12-12T18:50:45.381Z,8.50
2023-12-12T18:54:47.112Z,8.50
2023-12-12T18:59:01.516Z,8.50
2023-12-12T19:03:05.173Z,8.50
2023-12-12T19:07:07.049Z,8.50
2023-12-12T19:11:09.318Z,8.50
2023-12-12T19:15:14.565Z,8.50
2023-12-12T19:19:16.897Z,8.60
2023-12-12T19:23:18.732Z,8.60
2023-12-12T19:27:21.306Z,8.70
2023-12-12T19:31:23.229Z,8.70
2023-12-12T19:35:25.578Z,8.70
2023-12-12T19:39:27.403Z,8.70
2023-12-12T19:43:29.926Z,8.80
2023-12-12T19:47:32.079Z,8.70
2023-12-12T19:51:34.170Z,8.60
2023-12-12T19:55:36.033Z,8.60
2023-12-12T19:59:37.840Z,8.70
2023-12-12T20:03:39.576Z,8.60
2023-12-12T20:07:41.482Z,8.60
2023-12-12T20:11:43.555Z,8.70
2023-12-12T20:15:46.762Z,8.80
2023-12-12T20:19:49.607Z,8.80
2023-12-12T20:23:51.775Z,8.80
2023-12-12T20:27:53.743Z,8.80
2023-12-12T20:31:55.718Z,8.70
2023-12-12T20:35:57.883Z,8.70
2023-12-12T20:39:59.751Z,8.70
2023-12-12T20:44:01.599Z,8.70
2023-12-12T20:48:03.793Z,8.60
2023-12-12T20:52:07.546Z,8.60
2023-12-12T20:56:10.482Z,8.60
2023-12-12T21:00:13.331Z,8.50
2023-12-12T21:04:16.859Z,8.50
2023-12-12T21:08:23.301Z,8.60
2023-12-12T21:12:25.175Z,8.60
2023-12-12T21:16:28.635Z,8.70
2023-12-12T21:20:30.586Z,8.70
2023-12-12T21:24:32.856Z,8.70
2023-12-12T21:28:35.948Z,8.70
2023-12-12T21:32:40.961Z,8.70
2023-12-12T21:36:43.000Z,8.70
2023-12-12T21:40:45.471Z,8.70
2023-12-12T21:44:47.329Z,8.70
2023-12-12T21:48:49.259Z,8.70
2023-12-12T21:52:51.503Z,8.70
2023-12-12T21:56:53.384Z,8.70
2023-12-12T22:00:55.628Z,8.70
2023-12-12T22:04:57.720Z,8.70
2023-12-12T22:08:59.575Z,8.60
2023-12-12T22:13:01.400Z,8.50
2023-12-12T22:17:03.746Z,8.40
2023-12-12T22:21:07.530Z,8.40
2023-12-12T22:25:09.555Z,8.50
2023-12-12T22:29:11.417Z,8.40
2023-12-12T22:33:13.169Z,8.40
2023-12-12T22:37:14.966Z,8.30
2023-12-12T22:41:21.124Z,8.20
2023-12-12T22:45:23.522Z,8.00
2023-12-12T22:49:27.935Z,7.90
2023-12-12T22:53:29.712Z,7.80
2023-12-12T22:57:31.848Z,7.80
2023-12-12T23:01:34.755Z,7.90
2023-12-12T23:05:36.706Z,8.00
2023-12-12T23:09:38.413Z,8.00
2023-12-12T23:13:40.481Z,8.10
2023-12-12T23:17:42.377Z,8.00
2023-12-12T23:21:44.289Z,8.00
2023-12-12T23:25:46.058Z,8.00
2023-12-12T23:29:47.900Z,7.90
2023-12-12T23:33:49.868Z,7.80
2023-12-12T23:37:51.648Z,7.70
2023-12-12T23:41:53.452Z,7.70
2023-12-12T23:45:56.321Z,7.70
2023-12-12T23:49:59.185Z,7.70
2023-12-12T23:54:00.952Z,7.80
2023-12-12T23:58:02.904Z,7.90
